Nibulon 5 — UUAZ2 — position and weather

sailwx.info

Track history (hours):
 
Tides and Currents Weather Stations Pressure Air Temp Water Temp Dewpoint Dewpoint Depression Visibility Wind Speed Wind Dir Waves Ship Positions

Nibulon 5

Last reported at 2018-Jun-22 23:00 UTC. Time now 2018-Jun-22 23:01 UTC.
Position N 46°43' E 031°56'.

Length 38 m; draft 2.6 m.

Type: Tug. MMSI: 272735000.

Date/timePositionNaut miles runAvg speedWind from/ knotsBaromVisibWave heightAir tempDewpointWater temp
2018-Jun-22 23:00N 46°43' E 031°56'2 3.9
2018-Jun-22 22:30N 46°41' E 031°56'2 3.7
2018-Jun-22 22:00N 46°39' E 031°56'2 4.2
2018-Jun-22 21:30N 46°37' E 031°54'2 4.5
2018-Jun-22 21:00N 46°36' E 031°51'2 4.2
2018-Jun-22 20:30N 46°35' E 031°48'2 4.0
2018-Jun-22 20:00N 46°35' E 031°45'2 4.1
2018-Jun-22 19:30N 46°35' E 031°42'2 4.1
2018-Jun-22 18:59N 46°35' E 031°39'2 4.1
2018-Jun-22 18:30N 46°36' E 031°36'1 1.7
2018-Jun-22 18:00N 46°36' E 031°35'1 1.4
2018-Jun-22 17:30N 46°36' E 031°35'0 0.8
2018-Jun-22 17:00N 46°35' E 031°35'2 4.1
2018-Jun-22 16:29N 46°35' E 031°32'2 3.9
2018-Jun-22 16:00N 46°36' E 031°30'0 0.5
2018-Jun-22 15:30N 46°36' E 031°31'0 0.0
2018-Jun-22 14:52N 46°36' E 031°31'0 0.1
2018-Jun-22 14:30N 46°36' E 031°31'1 2.2
2018-Jun-22 14:00N 46°35' E 031°31'2 3.2
2018-Jun-22 13:30N 46°35' E 031°33'2 3.3
2018-Jun-22 12:48N 46°36' E 031°35'0 1.1
2018-Jun-22 12:29N 46°36' E 031°36'0 0.1
2018-Jun-22 06:07N 46°36' E 031°35'0 0.1
2018-Jun-22 05:47N 46°36' E 031°35'0 0.0
2018-Jun-22 05:28N 46°36' E 031°35'0 0.0
2018-Jun-22 04:57N 46°36' E 031°35'0 0.0
2018-Jun-22 04:30N 46°36' E 031°35'2 3.6
2018-Jun-22 04:01N 46°35' E 031°33'2 4.6
2018-Jun-22 03:28N 46°36' E 031°30'2 4.4
2018-Jun-22 03:00N 46°35' E 031°27'2 4.8
2018-Jun-22 02:30N 46°35' E 031°24'3 5.2
2018-Jun-22 02:00N 46°35' E 031°20'0 0.7
2018-Jun-22 01:27N 46°35' E 031°19'0 0.0
2018-Jun-22 01:00N 46°35' E 031°19'0 0.0
2018-Jun-22 00:30N 46°35' E 031°19'0 0.0
2018-Jun-22 00:00N 46°35' E 031°19'0 0.0
2018-Jun-21 21:54N 46°35' E 031°19'0 0.0
2018-Jun-21 21:24N 46°35' E 031°19'0 0.0
2018-Jun-21 13:59N 46°35' E 031°19'0 0.1
2018-Jun-21 13:23N 46°35' E 031°19'0 0.0
2018-Jun-20 23:43N 46°35' E 031°19'0 0.0
2018-Jun-20 23:26N 46°35' E 031°19'0 0.2
2018-Jun-20 22:59N 46°35' E 031°19'0 0.0
2018-Jun-20 22:20N 46°35' E 031°19'0 0.0
2018-Jun-20 21:32N 46°35' E 031°19'13 0.9
2018-Jun-20 06:47N 46°35' E 031°39'1 3.0
2018-Jun-20 06:30N 46°35' E 031°40'2 3.1
2018-Jun-20 06:00N 46°35' E 031°42'2 3.1
2018-Jun-20 05:30N 46°36' E 031°44'2 3.2
2018-Jun-20 05:01N 46°36' E 031°47'2 3.1
2018-Jun-20 04:30N 46°35' E 031°49'2 3.0
2018-Jun-20 04:00N 46°35' E 031°51'2 3.0
2018-Jun-20 03:30N 46°34' E 031°53'1 3.0
2018-Jun-20 03:00N 46°34' E 031°55'1 3.0
2018-Jun-20 02:31N 46°33' E 031°57'2 3.0
2018-Jun-20 02:00N 46°33' E 031°59'1 2.9
2018-Jun-20 01:30N 46°32' E 032°01'1 2.9
2018-Jun-20 01:00N 46°32' E 032°03'2 3.0
2018-Jun-20 00:29N 46°32' E 032°06'2 3.2
2018-Jun-20 00:00N 46°32' E 032°08'16 0.9
2018-Jun-19 05:19N 46°32' E 032°31'0 0.0
2018-Jun-19 04:58N 46°32' E 032°31'0 0.1
2018-Jun-19 04:16N 46°32' E 032°31'0 0.3
2018-Jun-19 03:52N 46°32' E 032°31'0 0.2
2018-Jun-19 03:28N 46°32' E 032°31'0 0.4
2018-Jun-19 02:58N 46°32' E 032°31'  
2018-Jun-16 07:01N 47°31' E 034°47'0 3.4
2018-Jun-16 07:00N 47°31' E 034°47'2 3.5
2018-Jun-16 06:29N 47°32' E 034°49'2 3.6
2018-Jun-16 06:00N 47°33' E 034°52'6 3.5
2018-Jun-16 04:14N 47°34' E 035°00'1 3.6
2018-Jun-16 04:00N 47°34' E 035°01'2 3.5
2018-Jun-16 03:30N 47°36' E 035°03'2 3.2
2018-Jun-16 03:00N 47°37' E 035°04'2 3.6
2018-Jun-16 02:30N 47°39' E 035°06'2 3.6
2018-Jun-16 02:00N 47°40' E 035°07'2 3.7
2018-Jun-16 01:30N 47°42' E 035°08'2 3.3
2018-Jun-16 01:00N 47°43' E 035°09'2 3.2
2018-Jun-16 00:30N 47°45' E 035°10'2 3.5
2018-Jun-16 00:00N 47°46' E 035°09'2 3.4
2018-Jun-15 23:30N 47°48' E 035°10'1 1.1
2018-Jun-15 23:00N 47°49' E 035°09'0 0.0
2018-Jun-15 22:30N 47°49' E 035°09'0 0.0
2018-Jun-15 22:00N 47°49' E 035°09'0 0.1
2018-Jun-15 21:30N 47°49' E 035°09'0 0.2
2018-Jun-15 21:00N 47°49' E 035°09'0 0.0
2018-Jun-15 20:30N 47°49' E 035°09'0 0.6
2018-Jun-15 20:00N 47°49' E 035°09'2 4.9
2018-Jun-15 19:30N 47°50' E 035°06'2 3.3
2018-Jun-15 19:00N 47°52' E 035°05'0 0.1
2018-Jun-15 18:30N 47°52' E 035°06'1 1.7
2018-Jun-15 18:00N 47°53' E 035°06'0 0.1
2018-Jun-15 17:30N 47°53' E 035°06'0 0.0
2018-Jun-15 17:00N 47°53' E 035°06'0 0.0
2018-Jun-15 16:30N 47°53' E 035°06'0 0.0
2018-Jun-15 16:00N 47°53' E 035°06'0 0.0
2018-Jun-15 15:30N 47°53' E 035°06'0 0.9
2018-Jun-15 15:00N 47°52' E 035°06'0 0.7
2018-Jun-15 14:30N 47°52' E 035°06'1 1.9
2018-Jun-15 14:00N 47°51' E 035°05'3 5.8
2018-Jun-15 13:30N 47°49' E 035°08'1 1.6
2018-Jun-15 13:00N 47°49' E 035°09'2 3.2
2018-Jun-15 12:30N 47°50' E 035°07'2 3.9
2018-Jun-15 12:00N 47°51' E 035°05'1 2.1
2018-Jun-15 11:30N 47°52' E 035°06'0 0.0
2018-Jun-15 11:00N 47°52' E 035°06'1 1.3
2018-Jun-15 10:30N 47°52' E 035°06'1 2.2
2018-Jun-15 10:00N 47°54' E 035°06'2 3.0
2018-Jun-15 09:30N 47°55' E 035°07'2 3.3
2018-Jun-15 09:00N 47°57' E 035°07'2 3.3
2018-Jun-15 08:30N 47°58' E 035°07'2 3.3
2018-Jun-15 08:00N 47°60' E 035°08'2 3.3
2018-Jun-15 07:30N 48°01' E 035°08'1 3.0
2018-Jun-15 07:00N 48°03' E 035°07'  
Track history (hours):
 
Tides and Currents Weather Stations Pressure Air Temp Water Temp Dewpoint Dewpoint Depression Visibility Wind Speed Wind Dir Waves Ship Positions

Nibulon 5

Last reported at 2018-Jun-22 23:00 UTC. Time now 2018-Jun-22 23:01 UTC.
Position N 46°43' E 031°56'.

Length 38 m; draft 2.6 m.

Type: Tug. MMSI: 272735000.

Date/timePositionNaut miles runAvg speedWind from/ knotsBaromVisibWave heightAir tempDewpointWater temp
2018-Jun-22 23:00N 46°43' E 031°56'2 3.9
2018-Jun-22 22:30N 46°41' E 031°56'2 3.7
2018-Jun-22 22:00N 46°39' E 031°56'2 4.2
2018-Jun-22 21:30N 46°37' E 031°54'2 4.5
2018-Jun-22 21:00N 46°36' E 031°51'2 4.2
2018-Jun-22 20:30N 46°35' E 031°48'2 4.0
2018-Jun-22 20:00N 46°35' E 031°45'2 4.1
2018-Jun-22 19:30N 46°35' E 031°42'2 4.1
2018-Jun-22 18:59N 46°35' E 031°39'2 4.1
2018-Jun-22 18:30N 46°36' E 031°36'1 1.7
2018-Jun-22 18:00N 46°36' E 031°35'1 1.4
2018-Jun-22 17:30N 46°36' E 031°35'0 0.8
2018-Jun-22 17:00N 46°35' E 031°35'2 4.1
2018-Jun-22 16:29N 46°35' E 031°32'2 3.9
2018-Jun-22 16:00N 46°36' E 031°30'0 0.5
2018-Jun-22 15:30N 46°36' E 031°31'0 0.0
2018-Jun-22 14:52N 46°36' E 031°31'0 0.1
2018-Jun-22 14:30N 46°36' E 031°31'1 2.2
2018-Jun-22 14:00N 46°35' E 031°31'2 3.2
2018-Jun-22 13:30N 46°35' E 031°33'2 3.3
2018-Jun-22 12:48N 46°36' E 031°35'0 1.1
2018-Jun-22 12:29N 46°36' E 031°36'0 0.1
2018-Jun-22 06:07N 46°36' E 031°35'0 0.1
2018-Jun-22 05:47N 46°36' E 031°35'0 0.0
2018-Jun-22 05:28N 46°36' E 031°35'0 0.0
2018-Jun-22 04:57N 46°36' E 031°35'0 0.0
2018-Jun-22 04:30N 46°36' E 031°35'2 3.6
2018-Jun-22 04:01N 46°35' E 031°33'2 4.6
2018-Jun-22 03:28N 46°36' E 031°30'2 4.4
2018-Jun-22 03:00N 46°35' E 031°27'2 4.8
2018-Jun-22 02:30N 46°35' E 031°24'3 5.2
2018-Jun-22 02:00N 46°35' E 031°20'0 0.7
2018-Jun-22 01:27N 46°35' E 031°19'0 0.0
2018-Jun-22 01:00N 46°35' E 031°19'0 0.0
2018-Jun-22 00:30N 46°35' E 031°19'0 0.0
2018-Jun-22 00:00N 46°35' E 031°19'0 0.0
2018-Jun-21 21:54N 46°35' E 031°19'0 0.0
2018-Jun-21 21:24N 46°35' E 031°19'0 0.0
2018-Jun-21 13:59N 46°35' E 031°19'0 0.1
2018-Jun-21 13:23N 46°35' E 031°19'0 0.0
2018-Jun-20 23:43N 46°35' E 031°19'0 0.0
2018-Jun-20 23:26N 46°35' E 031°19'0 0.2
2018-Jun-20 22:59N 46°35' E 031°19'0 0.0
2018-Jun-20 22:20N 46°35' E 031°19'0 0.0
2018-Jun-20 21:32N 46°35' E 031°19'13 0.9
2018-Jun-20 06:47N 46°35' E 031°39'1 3.0
2018-Jun-20 06:30N 46°35' E 031°40'2 3.1
2018-Jun-20 06:00N 46°35' E 031°42'2 3.1
2018-Jun-20 05:30N 46°36' E 031°44'2 3.2
2018-Jun-20 05:01N 46°36' E 031°47'2 3.1
2018-Jun-20 04:30N 46°35' E 031°49'2 3.0
2018-Jun-20 04:00N 46°35' E 031°51'2 3.0
2018-Jun-20 03:30N 46°34' E 031°53'1 3.0
2018-Jun-20 03:00N 46°34' E 031°55'1 3.0
2018-Jun-20 02:31N 46°33' E 031°57'2 3.0
2018-Jun-20 02:00N 46°33' E 031°59'1 2.9
2018-Jun-20 01:30N 46°32' E 032°01'1 2.9
2018-Jun-20 01:00N 46°32' E 032°03'2 3.0
2018-Jun-20 00:29N 46°32' E 032°06'2 3.2
2018-Jun-20 00:00N 46°32' E 032°08'16 0.9
2018-Jun-19 05:19N 46°32' E 032°31'0 0.0
2018-Jun-19 04:58N 46°32' E 032°31'0 0.1
2018-Jun-19 04:16N 46°32' E 032°31'0 0.3
2018-Jun-19 03:52N 46°32' E 032°31'0 0.2
2018-Jun-19 03:28N 46°32' E 032°31'0 0.4
2018-Jun-19 02:58N 46°32' E 032°31'  
2018-Jun-16 07:01N 47°31' E 034°47'0 3.4
2018-Jun-16 07:00N 47°31' E 034°47'2 3.5
2018-Jun-16 06:29N 47°32' E 034°49'2 3.6
2018-Jun-16 06:00N 47°33' E 034°52'6 3.5
2018-Jun-16 04:14N 47°34' E 035°00'1 3.6
2018-Jun-16 04:00N 47°34' E 035°01'2 3.5
2018-Jun-16 03:30N 47°36' E 035°03'2 3.2
2018-Jun-16 03:00N 47°37' E 035°04'2 3.6
2018-Jun-16 02:30N 47°39' E 035°06'2 3.6
2018-Jun-16 02:00N 47°40' E 035°07'2 3.7
2018-Jun-16 01:30N 47°42' E 035°08'2 3.3
2018-Jun-16 01:00N 47°43' E 035°09'2 3.2
2018-Jun-16 00:30N 47°45' E 035°10'2 3.5
2018-Jun-16 00:00N 47°46' E 035°09'2 3.4
2018-Jun-15 23:30N 47°48' E 035°10'1 1.1
2018-Jun-15 23:00N 47°49' E 035°09'0 0.0
2018-Jun-15 22:30N 47°49' E 035°09'0 0.0
2018-Jun-15 22:00N 47°49' E 035°09'0 0.1
2018-Jun-15 21:30N 47°49' E 035°09'0 0.2
2018-Jun-15 21:00N 47°49' E 035°09'0 0.0
2018-Jun-15 20:30N 47°49' E 035°09'0 0.6
2018-Jun-15 20:00N 47°49' E 035°09'2 4.9
2018-Jun-15 19:30N 47°50' E 035°06'2 3.3
2018-Jun-15 19:00N 47°52' E 035°05'0 0.1
2018-Jun-15 18:30N 47°52' E 035°06'1 1.7
2018-Jun-15 18:00N 47°53' E 035°06'0 0.1
2018-Jun-15 17:30N 47°53' E 035°06'0 0.0
2018-Jun-15 17:00N 47°53' E 035°06'0 0.0
2018-Jun-15 16:30N 47°53' E 035°06'0 0.0
2018-Jun-15 16:00N 47°53' E 035°06'0 0.0
2018-Jun-15 15:30N 47°53' E 035°06'0 0.9
2018-Jun-15 15:00N 47°52' E 035°06'0 0.7
2018-Jun-15 14:30N 47°52' E 035°06'1 1.9
2018-Jun-15 14:00N 47°51' E 035°05'3 5.8
2018-Jun-15 13:30N 47°49' E 035°08'1 1.6
2018-Jun-15 13:00N 47°49' E 035°09'2 3.2
2018-Jun-15 12:30N 47°50' E 035°07'2 3.9
2018-Jun-15 12:00N 47°51' E 035°05'1 2.1
2018-Jun-15 11:30N 47°52' E 035°06'0 0.0
2018-Jun-15 11:00N 47°52' E 035°06'1 1.3
2018-Jun-15 10:30N 47°52' E 035°06'1 2.2
2018-Jun-15 10:00N 47°54' E 035°06'2 3.0
2018-Jun-15 09:30N 47°55' E 035°07'2 3.3
2018-Jun-15 09:00N 47°57' E 035°07'2 3.3
2018-Jun-15 08:30N 47°58' E 035°07'2 3.3
2018-Jun-15 08:00N 47°60' E 035°08'2 3.3
2018-Jun-15 07:30N 48°01' E 035°08'1 3.0
2018-Jun-15 07:00N 48°03' E 035°07'  

Dump ship's entire track history